createdAt,value
2022-08-26T00:02:19.410Z,4.78
2022-08-26T00:04:49.333Z,4.10
2022-08-26T00:07:18.927Z,4.55
2022-08-26T00:09:47.502Z,4.07
2022-08-26T00:12:17.341Z,4.70
2022-08-26T00:14:46.059Z,4.60
2022-08-26T00:17:14.584Z,4.35
2022-08-26T00:19:43.709Z,4.90
2022-08-26T00:22:12.668Z,5.00
2022-08-26T00:24:48.500Z,5.43
2022-08-26T00:27:18.167Z,4.50
2022-08-26T00:29:46.452Z,4.95
2022-08-26T00:32:14.664Z,4.97
2022-08-26T00:34:43.085Z,4.68
2022-08-26T00:37:15.670Z,5.50
2022-08-26T00:39:44.370Z,5.38
2022-08-26T00:42:14.104Z,4.80
2022-08-26T00:44:43.804Z,5.00
2022-08-26T00:47:24.966Z,5.15
2022-08-26T00:49:53.811Z,4.80
2022-08-26T00:52:24.383Z,5.05
2022-08-26T00:54:58.163Z,5.18
2022-08-26T00:57:26.773Z,5.20
2022-08-26T00:59:59.411Z,5.70
2022-08-26T01:02:28.904Z,5.27
2022-08-26T01:05:00.860Z,5.30
2022-08-26T01:07:33.105Z,5.50
2022-08-26T01:10:05.960Z,5.10
2022-08-26T01:12:40.710Z,5.50
2022-08-26T01:15:13.647Z,5.25
2022-08-26T01:17:43.838Z,5.40
2022-08-26T01:20:24.961Z,5.40
2022-08-26T01:22:58.488Z,5.30
2022-08-26T01:25:33.462Z,5.85
2022-08-26T01:28:06.497Z,5.32
2022-08-26T01:30:35.922Z,5.82
2022-08-26T01:33:08.038Z,5.88
2022-08-26T01:35:37.732Z,5.65
2022-08-26T01:38:07.551Z,5.50
2022-08-26T01:40:39.272Z,5.85
2022-08-26T01:43:10.355Z,5.90
2022-08-26T01:45:40.876Z,5.30
2022-08-26T01:48:15.264Z,5.75
2022-08-26T01:50:45.804Z,6.18
2022-08-26T01:53:19.571Z,5.13
2022-08-26T01:55:53.346Z,6.05
2022-08-26T01:58:25.618Z,6.25
2022-08-26T02:00:55.388Z,6.38
2022-08-26T02:03:24.677Z,6.25
2022-08-26T02:05:55.589Z,6.97
2022-08-26T02:08:32.685Z,6.40
2022-08-26T02:11:01.029Z,7.18
2022-08-26T02:13:32.862Z,6.50
2022-08-26T02:16:03.879Z,6.80
2022-08-26T02:18:36.629Z,7.20
2022-08-26T02:21:06.772Z,6.57
2022-08-26T02:23:36.538Z,6.93
2022-08-26T02:26:11.977Z,6.78
2022-08-26T02:28:47.692Z,6.90
2022-08-26T02:31:15.940Z,6.57
2022-08-26T02:33:44.280Z,6.82
2022-08-26T02:36:13.486Z,7.75
2022-08-26T02:38:45.075Z,7.80
2022-08-26T02:41:15.038Z,7.15
2022-08-26T02:43:43.564Z,6.97
2022-08-26T02:46:12.316Z,7.20
2022-08-26T02:48:49.606Z,6.53
2022-08-26T02:51:17.855Z,7.05
2022-08-26T02:53:47.555Z,7.30
2022-08-26T02:56:15.813Z,7.22
2022-08-26T02:58:44.103Z,7.38
2022-08-26T03:01:22.242Z,7.45
2022-08-26T03:03:50.754Z,7.63
2022-08-26T03:06:19.855Z,8.05
2022-08-26T03:08:49.943Z,8.00
2022-08-26T03:11:18.881Z,8.93
2022-08-26T03:13:47.771Z,7.97
2022-08-26T03:16:16.117Z,8.68
2022-08-26T03:18:44.473Z,7.70
2022-08-26T03:21:21.214Z,8.30
2022-08-26T03:23:50.932Z,7.82
2022-08-26T03:26:19.221Z,7.75
2022-08-26T03:29:04.940Z,8.27
2022-08-26T03:31:33.194Z,9.02
2022-08-26T03:34:01.541Z,10.07
2022-08-26T03:36:30.232Z,10.93
2022-08-26T03:38:59.896Z,11.05
2022-08-26T03:41:28.149Z,13.45
2022-08-26T03:44:01.430Z,10.98
2022-08-26T03:46:31.784Z,12.02
2022-08-26T03:49:00.297Z,11.65
2022-08-26T03:51:28.942Z,12.43
2022-08-26T03:53:57.183Z,12.45
2022-08-26T03:56:27.137Z,12.95
2022-08-26T03:58:55.802Z,13.00
2022-08-26T04:01:24.354Z,13.18
2022-08-26T04:04:01.510Z,14.33
2022-08-26T04:06:31.740Z,13.63
2022-08-26T04:09:02.666Z,14.40
2022-08-26T04:11:35.948Z,16.08
2022-08-26T04:14:09.331Z,15.23
2022-08-26T04:16:38.890Z,15.80
2022-08-26T04:19:07.631Z,17.07
2022-08-26T04:21:38.159Z,16.90
2022-08-26T04:24:11.366Z,17.70
2022-08-26T04:26:43.650Z,17.85
2022-08-26T04:29:14.071Z,16.77
2022-08-26T04:31:42.777Z,17.50
2022-08-26T04:34:11.665Z,18.45
2022-08-26T04:36:43.094Z,18.60
2022-08-26T04:39:14.885Z,20.50
2022-08-26T04:41:44.971Z,20.33
2022-08-26T04:44:13.697Z,20.20
2022-08-26T04:46:43.903Z,21.58
2022-08-26T04:49:13.593Z,22.02
2022-08-26T04:51:41.821Z,25.60
2022-08-26T04:54:12.339Z,25.38
2022-08-26T04:56:44.567Z,25.17
2022-08-26T04:59:18.116Z,27.50
2022-08-26T05:01:47.934Z,26.90
2022-08-26T05:04:18.818Z,28.63
2022-08-26T05:06:47.549Z,27.63
2022-08-26T05:09:15.952Z,27.42
2022-08-26T05:11:45.616Z,29.58
2022-08-26T05:14:18.602Z,30.07
2022-08-26T05:16:47.876Z,29.60
2022-08-26T05:19:19.244Z,32.20
2022-08-26T05:21:48.723Z,31.77
2022-08-26T05:24:17.880Z,34.20
2022-08-26T05:26:47.241Z,33.40
2022-08-26T05:29:18.282Z,34.20
2022-08-26T05:31:51.025Z,34.90
2022-08-26T05:34:20.827Z,35.63
2022-08-26T05:36:49.401Z,37.10
2022-08-26T05:39:17.618Z,35.40
2022-08-26T05:41:46.119Z,35.45
2022-08-26T05:44:18.838Z,35.55
2022-08-26T05:46:47.385Z,36.23
2022-08-26T05:49:16.667Z,35.93
2022-08-26T05:51:46.370Z,35.13
2022-08-26T05:54:22.111Z,36.05
2022-08-26T05:56:51.333Z,35.22
2022-08-26T05:59:24.214Z,36.00
2022-08-26T06:01:53.457Z,34.33
2022-08-26T06:04:23.188Z,34.10
2022-08-26T06:06:54.982Z,34.28
2022-08-26T06:09:23.307Z,34.20
2022-08-26T06:11:52.075Z,35.33
2022-08-26T06:14:23.840Z,33.90
2022-08-26T06:16:52.067Z,33.95
2022-08-26T06:19:21.580Z,33.85
2022-08-26T06:21:54.238Z,33.80
2022-08-26T06:24:40.997Z,33.25
2022-08-26T06:27:13.616Z,33.23
2022-08-26T06:29:43.357Z,32.67
2022-08-26T06:32:11.587Z,31.60
2022-08-26T06:34:39.817Z,31.30
2022-08-26T06:37:08.812Z,31.40
2022-08-26T06:39:40.209Z,31.65
2022-08-26T06:42:10.863Z,29.58
2022-08-26T06:44:40.936Z,31.20
2022-08-26T06:47:10.722Z,32.00
2022-08-26T06:49:38.922Z,28.80
2022-08-26T06:52:08.047Z,28.83
2022-08-26T06:54:37.063Z,29.35
2022-08-26T06:57:07.245Z,28.77
2022-08-26T06:59:35.464Z,28.67
2022-08-26T07:02:04.023Z,28.80
2022-08-26T07:04:35.722Z,28.45
2022-08-26T07:07:04.084Z,28.23
2022-08-26T07:09:33.187Z,27.88
2022-08-26T07:12:03.865Z,27.73
2022-08-26T07:14:32.797Z,27.70
2022-08-26T07:17:02.877Z,29.08
2022-08-26T07:19:31.865Z,27.23
2022-08-26T07:22:03.845Z,27.60
2022-08-26T07:24:33.012Z,28.50
2022-08-26T07:27:02.711Z,27.00
2022-08-26T07:29:31.448Z,28.23
2022-08-26T07:31:59.958Z,27.70
2022-08-26T07:34:28.224Z,25.58
2022-08-26T07:36:56.822Z,26.45
2022-08-26T07:39:27.491Z,28.23
2022-08-26T07:41:56.284Z,26.77
2022-08-26T07:44:27.207Z,27.40
2022-08-26T07:46:55.680Z,26.15
2022-08-26T07:49:26.887Z,25.88
2022-08-26T07:51:56.950Z,25.58
2022-08-26T07:54:26.970Z,24.60
2022-08-26T07:56:56.194Z,25.45
2022-08-26T07:59:24.941Z,25.92
2022-08-26T08:01:53.865Z,27.15
2022-08-26T08:04:26.375Z,26.77
2022-08-26T08:06:55.289Z,24.88
2022-08-26T08:09:24.227Z,25.02
2022-08-26T08:11:54.300Z,24.77
2022-08-26T08:14:22.610Z,24.50
2022-08-26T08:16:54.577Z,24.83
2022-08-26T08:19:23.955Z,23.75
2022-08-26T08:22:01.281Z,24.40
2022-08-26T08:24:30.164Z,23.80
2022-08-26T08:26:59.676Z,22.75
2022-08-26T08:29:29.625Z,22.37
2022-08-26T08:31:59.995Z,22.57
2022-08-26T08:34:29.434Z,22.58
2022-08-26T08:36:58.207Z,22.50
2022-08-26T08:39:26.715Z,21.35
2022-08-26T08:42:23.547Z,21.50
2022-08-26T08:44:56.604Z,21.15
2022-08-26T08:47:32.409Z,22.05
2022-08-26T08:50:07.468Z,22.00
2022-08-26T08:52:37.251Z,19.98
2022-08-26T08:55:11.006Z,20.95
2022-08-26T08:57:53.632Z,20.00
2022-08-26T09:00:30.359Z,20.33
2022-08-26T09:03:02.806Z,19.25
2022-08-26T09:05:36.827Z,19.30
2022-08-26T09:08:11.074Z,19.45
2022-08-26T09:10:42.879Z,19.00
2022-08-26T09:13:16.393Z,19.77
2022-08-26T09:15:52.862Z,19.60
2022-08-26T09:18:36.903Z,18.23
2022-08-26T09:21:08.364Z,18.77
2022-08-26T09:23:43.544Z,18.70
2022-08-26T09:26:17.876Z,18.05
2022-08-26T09:28:50.247Z,17.23
2022-08-26T09:31:23.390Z,17.20
2022-08-26T09:34:12.816Z,17.00
2022-08-26T09:36:48.592Z,16.83
2022-08-26T09:39:33.449Z,17.15
2022-08-26T09:42:11.886Z,16.50
2022-08-26T09:44:59.463Z,17.45
2022-08-26T09:47:32.098Z,16.10
2022-08-26T09:50:11.021Z,15.40
2022-08-26T09:52:42.782Z,15.55
2022-08-26T09:55:15.619Z,16.92
2022-08-26T09:57:49.552Z,16.25
2022-08-26T10:00:38.541Z,15.60
2022-08-26T10:03:10.769Z,16.48
2022-08-26T10:05:43.924Z,15.73
2022-08-26T10:08:25.227Z,15.73
2022-08-26T10:10:55.331Z,17.67
2022-08-26T10:13:29.572Z,16.35
2022-08-26T10:16:07.192Z,15.50
2022-08-26T10:18:43.076Z,15.18
2022-08-26T10:21:15.301Z,15.75
2022-08-26T10:23:49.487Z,16.38
2022-08-26T10:26:24.732Z,15.80
2022-08-26T10:29:01.379Z,15.85
2022-08-26T10:31:40.289Z,15.27
2022-08-26T10:34:12.590Z,17.97
2022-08-26T10:37:15.770Z,14.70
2022-08-26T10:39:57.360Z,15.60
2022-08-26T10:42:33.205Z,22.92
2022-08-26T10:45:11.619Z,14.40
2022-08-26T10:47:46.849Z,14.90
2022-08-26T10:50:17.972Z,14.50
2022-08-26T10:52:57.781Z,13.63
2022-08-26T10:55:35.656Z,13.45
2022-08-26T10:58:13.996Z,12.65
2022-08-26T11:01:17.941Z,13.10
2022-08-26T11:04:00.334Z,13.45
2022-08-26T11:06:31.383Z,12.45
2022-08-26T11:09:01.243Z,14.00
2022-08-26T11:11:53.558Z,12.82
2022-08-26T11:14:53.139Z,12.87
2022-08-26T11:17:56.564Z,13.73
2022-08-26T11:20:41.534Z,12.95
2022-08-26T11:23:40.416Z,12.57
2022-08-26T11:26:35.962Z,14.30
2022-08-26T11:29:13.654Z,13.50
2022-08-26T11:31:56.863Z,13.68
2022-08-26T11:34:55.182Z,12.52
2022-08-26T11:37:32.530Z,13.90
2022-08-26T11:40:03.900Z,13.65
2022-08-26T11:42:41.978Z,13.18
2022-08-26T11:45:23.782Z,14.52
2022-08-26T11:47:52.126Z,16.65
2022-08-26T11:50:23.438Z,14.73
2022-08-26T11:52:55.847Z,14.18
2022-08-26T11:55:24.420Z,15.45
2022-08-26T11:57:55.811Z,15.02
2022-08-26T12:00:33.570Z,15.87
2022-08-26T12:03:07.853Z,14.40
2022-08-26T12:05:43.351Z,16.25
2022-08-26T12:08:17.511Z,14.25
2022-08-26T12:10:45.909Z,11.55
2022-08-26T12:13:22.285Z,12.70
2022-08-26T12:15:56.058Z,13.33
2022-08-26T12:18:28.799Z,13.50
2022-08-26T12:21:02.260Z,13.50
2022-08-26T12:23:43.823Z,13.35
2022-08-26T12:26:23.335Z,12.60
2022-08-26T12:28:56.063Z,14.77
2022-08-26T12:31:30.234Z,13.50
2022-08-26T12:34:01.459Z,12.30
2022-08-26T12:36:33.139Z,11.55
2022-08-26T12:39:12.681Z,11.40
2022-08-26T12:41:44.027Z,11.80
2022-08-26T12:44:37.597Z,11.80
2022-08-26T12:47:10.048Z,10.10
2022-08-26T12:49:40.476Z,10.10
2022-08-26T12:52:30.011Z,10.48
2022-08-26T12:55:02.837Z,10.53
2022-08-26T12:57:35.157Z,9.20
2022-08-26T13:00:40.826Z,13.85
2022-08-26T13:03:38.478Z,11.07
2022-08-26T13:06:15.543Z,8.60
2022-08-26T13:08:45.681Z,8.82
2022-08-26T13:11:20.288Z,8.13
2022-08-26T13:13:51.784Z,8.50
2022-08-26T13:16:20.569Z,8.80
2022-08-26T13:18:51.089Z,8.10
2022-08-26T13:21:22.939Z,8.20
2022-08-26T13:23:52.095Z,6.55
2022-08-26T13:26:23.117Z,6.88
2022-08-26T13:29:01.368Z,6.57
2022-08-26T13:31:32.343Z,6.70
2022-08-26T13:34:02.235Z,7.28
2022-08-26T13:36:30.653Z,8.93
2022-08-26T13:38:58.928Z,7.30
2022-08-26T13:41:29.243Z,5.60
2022-08-26T13:43:58.784Z,6.50
2022-08-26T13:46:28.162Z,4.78
2022-08-26T13:48:56.706Z,4.32
2022-08-26T13:51:25.337Z,5.05
2022-08-26T13:53:54.057Z,4.80
2022-08-26T13:56:22.917Z,3.80
2022-08-26T13:58:52.504Z,4.00
2022-08-26T14:01:20.963Z,4.07
2022-08-26T14:03:49.499Z,3.90
2022-08-26T14:06:17.786Z,3.40
2022-08-26T14:08:46.210Z,4.10
2022-08-26T14:11:14.476Z,3.83
2022-08-26T14:13:42.727Z,4.15
2022-08-26T14:16:18.179Z,4.50
2022-08-26T14:18:50.567Z,4.72
2022-08-26T14:21:20.553Z,4.70
2022-08-26T14:23:48.845Z,4.35
2022-08-26T14:26:28.465Z,4.00
2022-08-26T14:28:58.911Z,4.88
2022-08-26T14:31:30.122Z,4.63
2022-08-26T14:33:59.756Z,4.25
2022-08-26T14:36:32.280Z,5.07
2022-08-26T14:39:04.135Z,4.80
2022-08-26T14:41:33.268Z,4.50
2022-08-26T14:44:03.848Z,4.65
2022-08-26T14:46:40.787Z,4.60
2022-08-26T14:49:10.767Z,4.55
2022-08-26T14:51:39.474Z,4.40
2022-08-26T14:54:13.014Z,4.10
2022-08-26T14:56:47.518Z,4.05
2022-08-26T14:59:17.517Z,4.45
2022-08-26T15:01:47.459Z,4.57
2022-08-26T15:04:16.253Z,4.70
2022-08-26T15:06:44.612Z,4.50
2022-08-26T15:09:13.022Z,4.20
2022-08-26T15:11:41.378Z,4.50
2022-08-26T15:14:18.959Z,4.10
2022-08-26T15:16:49.679Z,4.63
2022-08-26T15:19:19.275Z,6.40
2022-08-26T15:21:48.181Z,4.00
2022-08-26T15:24:19.138Z,3.97
2022-08-26T15:26:48.225Z,3.80
2022-08-26T15:29:16.810Z,3.80
2022-08-26T15:31:45.047Z,4.75
2022-08-26T15:34:16.970Z,4.45
2022-08-26T15:36:46.826Z,5.50
2022-08-26T15:39:16.302Z,3.60
2022-08-26T15:41:45.021Z,3.60
2022-08-26T15:44:16.199Z,3.90
2022-08-26T15:46:45.125Z,3.20
2022-08-26T15:49:18.258Z,3.50
2022-08-26T15:51:50.349Z,3.60
2022-08-26T15:54:21.212Z,3.35
2022-08-26T15:56:52.041Z,3.30
2022-08-26T15:59:21.584Z,4.97
2022-08-26T16:01:49.867Z,4.45
2022-08-26T16:04:20.137Z,4.10
2022-08-26T16:06:50.313Z,3.85
2022-08-26T16:09:19.019Z,3.60
2022-08-26T16:11:47.198Z,3.43
2022-08-26T16:14:15.541Z,3.20
2022-08-26T16:16:43.775Z,3.55
2022-08-26T16:19:12.572Z,3.28
2022-08-26T16:21:43.072Z,2.70
2022-08-26T16:24:11.916Z,5.38
2022-08-26T16:26:42.308Z,7.10
2022-08-26T16:29:12.279Z,6.50
2022-08-26T16:31:40.909Z,6.93
2022-08-26T16:34:10.497Z,4.77
2022-08-26T16:36:40.055Z,4.57
2022-08-26T16:39:10.535Z,3.63
2022-08-26T16:41:38.777Z,2.63
2022-08-26T16:44:08.390Z,3.28
2022-08-26T16:46:37.069Z,3.80
2022-08-26T16:49:05.520Z,3.47
2022-08-26T16:51:37.831Z,3.35
2022-08-26T16:54:09.243Z,3.37
2022-08-26T16:56:38.439Z,3.42
2022-08-26T16:59:10.478Z,3.80
2022-08-26T17:01:38.960Z,2.88
2022-08-26T17:04:07.183Z,2.90
2022-08-26T17:06:35.471Z,3.10
2022-08-26T17:09:03.847Z,4.40
2022-08-26T17:11:33.356Z,3.80
2022-08-26T17:14:01.622Z,4.82
2022-08-26T17:16:30.099Z,3.80
2022-08-26T17:18:59.538Z,3.42
2022-08-26T17:21:28.915Z,3.92
2022-08-26T17:23:57.334Z,3.77
2022-08-26T17:26:25.739Z,3.00
2022-08-26T17:28:55.610Z,3.60
2022-08-26T17:31:24.813Z,5.65
2022-08-26T17:33:54.426Z,4.60
2022-08-26T17:36:27.856Z,3.70
2022-08-26T17:38:57.030Z,2.75
2022-08-26T17:41:25.920Z,3.30
2022-08-26T17:43:55.677Z,5.82
2022-08-26T17:46:24.157Z,2.50
2022-08-26T17:48:52.487Z,4.47
2022-08-26T17:51:21.708Z,3.67
2022-08-26T17:53:50.779Z,3.50
2022-08-26T17:56:24.989Z,3.10
2022-08-26T17:58:56.480Z,2.95
2022-08-26T18:01:27.467Z,2.50
2022-08-26T18:04:00.337Z,2.80
2022-08-26T18:06:30.534Z,2.42
2022-08-26T18:08:59.229Z,2.15
2022-08-26T18:11:28.382Z,2.90
2022-08-26T18:13:58.347Z,2.73
2022-08-26T18:16:27.230Z,2.95
2022-08-26T18:18:55.751Z,2.58
2022-08-26T18:21:27.161Z,2.40
2022-08-26T18:23:55.848Z,2.38
2022-08-26T18:26:26.706Z,2.00
2022-08-26T18:28:55.173Z,2.60
2022-08-26T18:31:25.031Z,2.50
2022-08-26T18:33:53.436Z,2.30
2022-08-26T18:36:25.855Z,2.40
2022-08-26T18:38:54.910Z,2.40
2022-08-26T18:41:25.256Z,2.42
2022-08-26T18:43:54.191Z,2.42
2022-08-26T18:46:26.304Z,2.30
2022-08-26T18:48:55.618Z,4.38
2022-08-26T18:51:26.182Z,5.28
2022-08-26T18:53:54.716Z,3.22
2022-08-26T18:56:23.508Z,5.18
2022-08-26T18:58:51.791Z,3.33
2022-08-26T19:01:25.453Z,3.17
2022-08-26T19:03:57.176Z,2.60
2022-08-26T19:06:26.869Z,3.20
2022-08-26T19:08:55.697Z,2.00
2022-08-26T19:11:31.642Z,2.15
2022-08-26T19:14:01.559Z,1.90
2022-08-26T19:16:30.546Z,1.95
2022-08-26T19:19:01.946Z,1.80
2022-08-26T19:21:30.984Z,1.95
2022-08-26T19:24:00.966Z,2.20
2022-08-26T19:26:31.607Z,1.90
2022-08-26T19:29:00.307Z,2.22
2022-08-26T19:31:30.022Z,2.13
2022-08-26T19:33:59.905Z,2.10
2022-08-26T19:36:29.205Z,2.00
2022-08-26T19:38:57.540Z,1.90
2022-08-26T19:41:36.907Z,2.00
2022-08-26T19:44:09.611Z,2.08
2022-08-26T19:49:13.259Z,3.70
2022-08-26T19:51:41.450Z,3.30
2022-08-26T19:54:09.750Z,2.90
2022-08-26T19:56:37.892Z,2.85
2022-08-26T19:59:06.080Z,2.60
2022-08-26T20:01:34.361Z,1.80
2022-08-26T20:04:02.865Z,2.08
2022-08-26T20:06:32.573Z,1.85
2022-08-26T20:09:00.804Z,1.60
2022-08-26T20:11:29.802Z,2.28
2022-08-26T20:13:59.668Z,2.40
2022-08-26T20:16:27.895Z,1.90
2022-08-26T20:19:13.381Z,2.38
2022-08-26T20:21:43.184Z,2.25
2022-08-26T20:24:13.861Z,2.13
2022-08-26T20:26:44.167Z,1.90
2022-08-26T20:29:15.845Z,2.07
2022-08-26T20:31:44.818Z,1.90
2022-08-26T20:34:13.892Z,2.20
2022-08-26T20:36:44.103Z,2.30
2022-08-26T20:39:12.863Z,2.20
2022-08-26T20:41:41.512Z,2.58
2022-08-26T20:44:10.479Z,2.30
2022-08-26T20:46:38.889Z,1.90
2022-08-26T20:49:08.196Z,2.40
2022-08-26T20:51:38.075Z,2.47
2022-08-26T20:54:08.784Z,2.60
2022-08-26T20:56:37.532Z,2.10
2022-08-26T20:59:07.843Z,2.40
2022-08-26T21:01:42.427Z,2.10
2022-08-26T21:04:14.174Z,2.50
2022-08-26T21:06:46.616Z,2.53
2022-08-26T21:09:19.893Z,2.20
2022-08-26T21:11:49.801Z,2.30
2022-08-26T21:14:18.956Z,2.30
2022-08-26T21:16:47.765Z,2.05
2022-08-26T21:19:18.652Z,2.60
2022-08-26T21:21:47.373Z,2.40
2022-08-26T21:24:16.340Z,2.20
2022-08-26T21:26:46.496Z,2.50
2022-08-26T21:29:15.339Z,2.90
2022-08-26T21:31:46.354Z,2.50
2022-08-26T21:34:15.542Z,2.30
2022-08-26T21:36:43.727Z,2.70
2022-08-26T21:39:12.435Z,3.30
2022-08-26T21:41:41.591Z,2.08
2022-08-26T21:44:12.643Z,2.58
2022-08-26T21:46:41.486Z,2.33
2022-08-26T21:49:12.234Z,2.70
2022-08-26T21:51:42.995Z,2.33
2022-08-26T21:54:12.112Z,2.30
2022-08-26T21:56:42.100Z,2.78
2022-08-26T21:59:11.891Z,2.72
2022-08-26T22:01:40.204Z,2.70
2022-08-26T22:04:10.136Z,2.80
2022-08-26T22:06:43.273Z,2.70
2022-08-26T22:09:12.862Z,2.70
2022-08-26T22:11:41.367Z,2.47
2022-08-26T22:14:11.555Z,2.60
2022-08-26T22:16:39.915Z,2.60
2022-08-26T22:19:08.288Z,2.17
2022-08-26T22:21:41.939Z,2.50
2022-08-26T22:24:12.149Z,2.70
2022-08-26T22:26:40.429Z,2.60
2022-08-26T22:29:08.684Z,2.30
2022-08-26T22:31:38.973Z,2.33
2022-08-26T22:34:09.718Z,2.40
2022-08-26T22:36:43.163Z,1.70
2022-08-26T22:39:13.489Z,1.80
2022-08-26T22:41:42.957Z,1.70
2022-08-26T22:44:12.475Z,1.90
2022-08-26T22:46:43.295Z,1.90
2022-08-26T22:49:15.708Z,1.58
2022-08-26T22:51:44.585Z,2.80
2022-08-26T22:54:12.945Z,1.98
2022-08-26T22:56:41.739Z,1.95
2022-08-26T22:59:10.974Z,2.33
2022-08-26T23:01:42.619Z,2.85
2022-08-26T23:04:11.099Z,2.80
2022-08-26T23:06:47.437Z,2.20
2022-08-26T23:09:18.134Z,2.30
2022-08-26T23:11:47.531Z,2.20
2022-08-26T23:14:17.131Z,2.20
2022-08-26T23:16:47.326Z,2.08
2022-08-26T23:19:18.517Z,2.10
2022-08-26T23:21:47.153Z,2.40
2022-08-26T23:24:15.742Z,2.30
2022-08-26T23:26:44.229Z,2.70
2022-08-26T23:29:15.501Z,2.53
2022-08-26T23:31:44.567Z,2.40
2022-08-26T23:34:32.926Z,2.10
2022-08-26T23:37:01.580Z,2.20
2022-08-26T23:39:30.194Z,2.50
2022-08-26T23:42:01.525Z,2.20
2022-08-26T23:44:31.040Z,2.70
2022-08-26T23:46:59.994Z,2.40
2022-08-26T23:49:30.327Z,2.60
2022-08-26T23:52:16.461Z,3.20
2022-08-26T23:54:45.309Z,2.60
2022-08-26T23:57:13.520Z,2.45
2022-08-26T23:59:41.733Z,2.63
